createdAt,value
2022-10-14T00:02:58.642Z,100336.28
2022-10-14T00:08:01.283Z,100350.56
2022-10-14T00:13:03.835Z,100326.16
2022-10-14T00:18:07.578Z,100331.06
2022-10-14T00:23:10.213Z,100350.03
2022-10-14T00:28:12.732Z,100337.19
2022-10-14T00:33:15.285Z,100343.88
2022-10-14T00:38:17.869Z,100347.69
2022-10-14T00:43:21.676Z,100336.53
2022-10-14T00:48:26.902Z,100337.94
2022-10-14T00:53:31.490Z,100347.63
2022-10-14T00:58:34.177Z,100350.78
2022-10-14T01:03:36.771Z,100350.59
2022-10-14T01:09:03.526Z,100361.59
2022-10-14T01:14:33.088Z,100349.66
2022-10-14T01:20:00.431Z,100352.97
2022-10-14T01:25:12.468Z,100346.59
2022-10-14T01:30:22.237Z,100344.28
2022-10-14T01:35:30.498Z,100337.50
2022-10-14T01:40:45.020Z,100341.34
2022-10-14T01:45:50.113Z,100329.16
2022-10-14T01:50:56.180Z,100319.81
2022-10-14T01:56:01.631Z,100298.53
2022-10-14T02:01:08.677Z,100333.63
2022-10-14T02:06:27.152Z,100318.31
2022-10-14T02:11:41.524Z,100337.41
2022-10-14T02:17:02.880Z,100336.38
2022-10-14T02:22:25.777Z,100302.91
2022-10-14T02:27:36.698Z,100321.34
2022-10-14T02:32:41.807Z,100340.69
2022-10-14T02:37:49.404Z,100351.94
2022-10-14T02:42:52.280Z,100347.38
2022-10-14T02:47:54.939Z,100346.28
2022-10-14T02:52:57.533Z,100356.16
2022-10-14T02:58:00.136Z,100346.50
2022-10-14T03:03:02.872Z,100334.88
2022-10-14T03:08:06.971Z,100349.53
2022-10-14T03:13:09.765Z,100341.41
2022-10-14T03:18:17.857Z,100320.63
2022-10-14T03:23:23.350Z,100342.09
2022-10-14T03:28:28.988Z,100332.81
2022-10-14T03:33:42.604Z,100331.88
2022-10-14T03:38:50.906Z,100327.81
2022-10-14T03:44:09.590Z,100312.50
2022-10-14T03:49:14.628Z,100338.59
2022-10-14T03:54:17.688Z,100332.03
2022-10-14T03:59:20.856Z,100333.94
2022-10-14T04:04:26.071Z,100323.75
2022-10-14T04:09:29.317Z,100324.75
2022-10-14T04:14:32.065Z,100330.03
2022-10-14T04:19:35.522Z,100328.16
2022-10-14T04:24:39.297Z,100332.41
2022-10-14T04:29:43.396Z,100332.97
2022-10-14T04:35:09.921Z,100338.22
2022-10-14T04:40:17.326Z,100326.53
2022-10-14T04:45:23.053Z,100341.88
2022-10-14T04:50:31.912Z,100331.50
2022-10-14T04:55:54.261Z,100339.66
2022-10-14T05:00:57.375Z,100340.13
2022-10-14T05:06:05.082Z,100335.66
2022-10-14T05:11:10.378Z,100336.50
2022-10-14T05:16:19.526Z,100330.75
2022-10-14T05:21:22.079Z,100320.72
2022-10-14T05:26:44.135Z,100332.31
2022-10-14T05:31:49.095Z,100332.41
2022-10-14T05:36:59.245Z,100330.47
2022-10-14T05:42:06.812Z,100332.63
2022-10-14T05:47:10.753Z,100328.13
2022-10-14T05:52:14.457Z,100312.66
2022-10-14T05:57:19.135Z,100330.91
2022-10-14T06:02:22.860Z,100324.75
2022-10-14T06:07:25.990Z,100310.19
2022-10-14T06:12:28.621Z,100330.75
2022-10-14T06:17:31.409Z,100332.97
2022-10-14T06:22:34.084Z,100303.34
2022-10-14T06:27:36.703Z,100331.06
2022-10-14T06:32:39.287Z,100321.69
2022-10-14T06:37:45.550Z,100344.69
2022-10-14T06:42:48.259Z,100341.78
2022-10-14T06:47:51.510Z,100327.13
2022-10-14T06:52:54.081Z,100338.22
2022-10-14T06:57:56.711Z,100337.69
2022-10-14T07:02:59.899Z,100345.59
2022-10-14T07:08:02.472Z,100338.56
2022-10-14T07:13:05.061Z,100327.94
2022-10-14T07:18:08.105Z,100329.19
2022-10-14T07:23:10.800Z,100350.38
2022-10-14T07:28:13.472Z,100323.72
2022-10-14T07:33:16.039Z,100343.09
2022-10-14T07:38:18.825Z,100338.97
2022-10-14T07:43:21.408Z,100327.47
2022-10-14T07:48:32.643Z,100333.47
2022-10-14T07:53:48.331Z,100312.94
2022-10-14T07:58:51.134Z,100312.63
2022-10-14T08:03:53.876Z,100325.50
2022-10-14T08:08:56.525Z,100308.69
2022-10-14T08:13:59.648Z,100320.91
2022-10-14T08:19:08.489Z,100319.22
2022-10-14T08:24:13.709Z,100311.84
2022-10-14T08:29:16.440Z,100305.88
2022-10-14T08:34:21.939Z,100302.84
2022-10-14T08:39:25.300Z,100280.44
2022-10-14T08:44:47.639Z,100279.19
2022-10-14T08:50:03.803Z,100307.44
2022-10-14T08:55:28.027Z,100297.75
2022-10-14T09:00:32.482Z,100298.28
2022-10-14T09:05:35.297Z,100291.41
2022-10-14T09:10:42.489Z,100303.81
2022-10-14T09:16:06.358Z,100297.97
2022-10-14T09:26:58.655Z,100248.34
2022-10-14T09:32:16.397Z,100262.69
2022-10-14T09:37:36.909Z,100291.22
2022-10-14T09:43:02.125Z,100295.63
2022-10-14T09:48:08.172Z,100286.31
2022-10-14T09:53:37.320Z,100289.00
2022-10-14T09:58:43.840Z,100299.25
2022-10-14T10:03:48.594Z,100268.34
2022-10-14T10:08:58.619Z,100289.00
2022-10-14T10:14:21.080Z,100298.53
2022-10-14T10:19:31.937Z,100289.00
2022-10-14T10:24:34.641Z,100300.06
2022-10-14T10:29:37.262Z,100294.22
2022-10-14T10:34:51.229Z,100309.03
2022-10-14T10:40:17.338Z,100293.81
2022-10-14T10:45:36.977Z,100298.16
2022-10-14T10:50:57.627Z,100304.75
2022-10-14T10:56:16.024Z,100302.16
2022-10-14T11:01:53.793Z,100303.19
2022-10-14T11:07:34.216Z,100295.28
2022-10-14T11:12:49.476Z,100286.53
2022-10-14T11:18:29.971Z,100285.06
2022-10-14T11:24:26.325Z,100300.53
2022-10-14T11:29:46.309Z,100296.28
2022-10-14T11:35:26.460Z,100285.00
2022-10-14T11:40:43.304Z,100285.03
2022-10-14T11:46:02.453Z,100278.38
2022-10-14T11:51:36.114Z,100286.28
2022-10-14T11:56:53.668Z,100288.66
2022-10-14T12:02:03.935Z,100285.22
2022-10-14T12:07:20.045Z,100275.53
2022-10-14T12:12:27.033Z,100273.00
2022-10-14T12:17:36.338Z,100266.19
2022-10-14T12:22:39.844Z,100260.44
2022-10-14T12:27:42.775Z,100250.34
2022-10-14T12:33:08.813Z,100247.78
2022-10-14T12:38:13.665Z,100246.94
2022-10-14T12:43:23.787Z,100234.13
2022-10-14T12:48:29.821Z,100222.97
2022-10-14T12:53:34.725Z,100230.00
2022-10-14T12:59:01.356Z,100230.09
2022-10-14T13:04:08.375Z,100224.16
2022-10-14T13:09:13.978Z,100223.22
2022-10-14T13:14:35.580Z,100230.94
2022-10-14T13:19:43.553Z,100220.59
2022-10-14T13:24:46.193Z,100193.94
2022-10-14T13:30:19.046Z,100226.66
2022-10-14T13:35:26.334Z,100226.69
2022-10-14T13:40:36.087Z,100214.72
2022-10-14T13:45:50.423Z,100189.59
2022-10-14T13:51:17.233Z,100212.81
2022-10-14T13:56:32.048Z,100214.59
2022-10-14T14:01:39.407Z,100201.75
2022-10-14T14:07:00.477Z,100216.34
2022-10-14T14:12:13.324Z,100220.56
2022-10-14T14:17:22.818Z,100214.41
2022-10-14T14:22:32.069Z,100222.13
2022-10-14T14:27:35.321Z,100220.25
2022-10-14T14:32:38.003Z,100190.84
2022-10-14T14:37:56.080Z,100196.91
2022-10-14T14:43:04.479Z,100223.47
2022-10-14T14:48:08.404Z,100218.19
2022-10-14T14:53:22.797Z,100220.84
2022-10-14T14:58:38.775Z,100213.84
2022-10-14T15:04:12.980Z,100213.03
2022-10-14T15:09:24.468Z,100169.88
2022-10-14T15:14:48.310Z,100207.94
2022-10-14T15:19:50.890Z,100213.94
2022-10-14T15:25:23.721Z,100208.72
2022-10-14T15:30:54.049Z,100212.97
2022-10-14T15:36:04.314Z,100206.91
2022-10-14T15:41:10.163Z,100215.56
2022-10-14T15:46:32.376Z,100204.22
2022-10-14T15:51:34.809Z,100213.72
2022-10-14T15:56:37.163Z,100213.72
2022-10-14T16:01:41.283Z,100220.66
2022-10-14T16:06:43.907Z,100204.44
2022-10-14T16:11:46.460Z,100212.19
2022-10-14T16:16:49.192Z,100213.97
2022-10-14T16:21:51.725Z,100214.81
2022-10-14T16:26:54.855Z,100223.44
2022-10-14T16:31:57.508Z,100230.34
2022-10-14T16:37:00.151Z,100223.44
2022-10-14T16:42:02.916Z,100231.97
2022-10-14T16:47:17.911Z,100228.53
2022-10-14T16:52:21.427Z,100225.16
2022-10-14T16:57:25.064Z,100230.34
2022-10-14T17:02:31.950Z,100231.06
2022-10-14T17:07:35.421Z,100224.28
2022-10-14T17:12:38.913Z,100212.97
2022-10-14T17:17:41.545Z,100210.44
2022-10-14T17:22:44.701Z,100208.78
2022-10-14T17:27:47.370Z,100191.53
2022-10-14T17:32:49.971Z,100215.69
2022-10-14T17:37:52.717Z,100207.94
2022-10-14T17:43:00.897Z,100212.88
2022-10-14T17:48:07.222Z,100222.31
2022-10-14T17:53:12.052Z,100221.47
2022-10-14T17:58:14.741Z,100219.47
2022-10-14T18:03:18.619Z,100217.75
2022-10-14T18:08:21.166Z,100223.66
2022-10-14T18:13:23.841Z,100220.09
2022-10-14T18:18:26.489Z,100228.63
2022-10-14T18:23:30.826Z,100224.13
2022-10-14T18:28:36.085Z,100233.59
2022-10-14T18:33:40.367Z,100233.69
2022-10-14T18:38:43.725Z,100231.75
2022-10-14T18:43:46.724Z,100231.50
2022-10-14T18:48:53.728Z,100229.41
2022-10-14T18:53:59.692Z,100227.63
2022-10-14T18:59:07.155Z,100234.34
2022-10-14T19:04:13.121Z,100229.22
2022-10-14T19:09:17.695Z,100224.59
2022-10-14T19:14:22.063Z,100231.25
2022-10-14T19:19:24.669Z,100225.59
2022-10-14T19:24:27.373Z,100217.81
2022-10-14T19:29:29.882Z,100239.31
2022-10-14T19:34:32.593Z,100246.91
2022-10-14T19:39:35.192Z,100241.53
2022-10-14T19:44:38.211Z,100237.97
2022-10-14T19:49:40.790Z,100248.94
2022-10-14T19:54:43.410Z,100238.38
2022-10-14T19:59:46.001Z,100244.38
2022-10-14T20:04:48.601Z,100249.50
2022-10-14T20:09:52.824Z,100237.72
2022-10-14T20:14:55.429Z,100250.84
2022-10-14T20:19:58.070Z,100205.53
2022-10-14T20:25:00.692Z,100238.06
2022-10-14T20:30:04.549Z,100238.53
2022-10-14T20:35:08.712Z,100243.00
2022-10-14T20:40:15.288Z,100244.06
2022-10-14T20:45:18.024Z,100220.53
2022-10-14T20:50:21.603Z,100242.25
2022-10-14T20:55:24.280Z,100237.13
2022-10-14T21:00:36.556Z,100246.75
2022-10-14T21:05:39.114Z,100247.78
2022-10-14T21:10:41.748Z,100250.22
2022-10-14T21:15:44.269Z,100239.03
2022-10-14T21:20:46.918Z,100255.63
2022-10-14T21:25:57.128Z,100252.34
2022-10-14T21:30:59.833Z,100240.34
2022-10-14T21:36:08.499Z,100257.00
2022-10-14T21:41:11.992Z,100262.16
2022-10-14T21:46:15.610Z,100264.91
2022-10-14T21:51:18.820Z,100257.06
2022-10-14T21:56:22.168Z,100246.88
2022-10-14T22:01:27.508Z,100258.34
2022-10-14T22:06:32.106Z,100259.09
2022-10-14T22:11:38.158Z,100259.25
2022-10-14T22:16:40.869Z,100258.34
2022-10-14T22:21:45.116Z,100259.00
2022-10-14T22:26:50.464Z,100254.84
2022-10-14T22:31:52.988Z,100253.28
2022-10-14T22:36:55.580Z,100260.25
2022-10-14T22:41:58.131Z,100248.31
2022-10-14T22:47:00.909Z,100244.75
2022-10-14T22:52:03.560Z,100236.13
2022-10-14T22:57:06.132Z,100269.94
2022-10-14T23:02:08.834Z,100270.09
2022-10-14T23:07:11.372Z,100252.69
2022-10-14T23:12:14.002Z,100269.16
2022-10-14T23:17:16.586Z,100258.00
2022-10-14T23:22:19.224Z,100258.94
2022-10-14T23:27:21.805Z,100260.66
2022-10-14T23:32:24.321Z,100258.13
2022-10-14T23:37:27.096Z,100265.97
2022-10-14T23:42:29.662Z,100256.13
2022-10-14T23:47:32.425Z,100258.72
2022-10-14T23:52:35.211Z,100261.63
2022-10-14T23:57:37.780Z,100255.78
